createdAt,value
2022-11-25T00:00:27.043Z,100546.75
2022-11-25T00:02:56.573Z,100552.78
2022-11-25T00:05:18.465Z,100547.72
2022-11-25T00:10:28.486Z,100548.50
2022-11-25T00:12:56.234Z,100550.03
2022-11-25T00:15:42.613Z,100548.50
2022-11-25T00:21:11.649Z,100555.09
2022-11-25T00:23:41.685Z,100564.53
2022-11-25T00:29:01.180Z,100561.34
2022-11-25T00:34:18.703Z,100571.13
2022-11-25T00:36:42.944Z,100572.09
2022-11-25T00:42:28.452Z,100570.44
2022-11-25T00:47:54.654Z,100575.28
2022-11-25T00:53:19.559Z,100569.56
2022-11-25T00:58:44.847Z,100581.53
2022-11-25T01:01:24.315Z,100586.03
2022-11-25T01:03:39.877Z,100578.13
2022-11-25T01:05:55.881Z,100589.31
2022-11-25T01:07:59.762Z,100575.72
2022-11-25T01:10:01.656Z,100578.03
2022-11-25T01:12:09.668Z,100591.75
2022-11-25T01:14:34.859Z,100583.06
2022-11-25T01:16:55.322Z,100582.97
2022-11-25T01:19:22.105Z,100582.31
2022-11-25T01:22:01.101Z,100590.09
2022-11-25T01:27:24.825Z,100584.06
2022-11-25T01:30:02.842Z,100590.97
2022-11-25T01:32:21.990Z,100588.91
2022-11-25T01:35:04.560Z,100599.09
2022-11-25T01:37:12.500Z,100596.47
2022-11-25T01:39:22.152Z,100588.78
2022-11-25T01:41:32.133Z,100594.81
2022-11-25T01:47:23.674Z,100589.09
2022-11-25T01:49:57.296Z,100594.47
2022-11-25T01:52:32.436Z,100599.53
2022-11-25T01:54:49.292Z,100597.47
2022-11-25T01:57:06.888Z,100594.81
2022-11-25T01:59:47.292Z,100594.94
2022-11-25T02:02:00.890Z,100604.03
2022-11-25T02:04:16.573Z,100601.53
2022-11-25T02:06:32.541Z,100603.25
2022-11-25T02:08:50.233Z,100610.16
2022-11-25T02:10:54.403Z,100608.22
2022-11-25T02:13:10.577Z,100605.03
2022-11-25T02:15:24.662Z,100613.59
2022-11-25T02:17:28.856Z,100597.22
2022-11-25T02:20:05.213Z,100599.75
2022-11-25T02:22:59.991Z,100604.91
2022-11-25T02:25:16.784Z,100605.13
2022-11-25T02:27:21.700Z,100612.38
2022-11-25T02:29:44.535Z,100606.56
2022-11-25T02:31:50.814Z,100614.22
2022-11-25T02:34:05.996Z,100612.50
2022-11-25T02:36:20.620Z,100607.44
2022-11-25T02:38:57.601Z,100614.34
2022-11-25T02:41:43.820Z,100605.91
2022-11-25T02:44:02.716Z,100607.31
2022-11-25T02:49:26.965Z,100598.78
2022-11-25T02:52:22.840Z,100605.47
2022-11-25T02:57:46.007Z,100603.06
2022-11-25T03:03:04.045Z,100603.19
2022-11-25T03:05:06.185Z,100610.84
2022-11-25T03:07:39.621Z,100612.50
2022-11-25T03:09:57.371Z,100612.59
2022-11-25T03:12:25.207Z,100606.44
2022-11-25T03:17:42.704Z,100615.78
2022-11-25T03:23:00.250Z,100620.19
2022-11-25T03:25:48.840Z,100628.81
2022-11-25T03:28:19.370Z,100626.22
2022-11-25T03:30:59.808Z,100631.16
2022-11-25T03:33:38.355Z,100634.41
2022-11-25T03:38:55.741Z,100641.13
2022-11-25T03:44:15.473Z,100632.34
2022-11-25T03:46:48.516Z,100642.66
2022-11-25T03:49:12.352Z,100646.19
2022-11-25T03:51:36.657Z,100645.31
2022-11-25T03:56:59.875Z,100640.13
2022-11-25T04:02:23.228Z,100644.44
2022-11-25T04:05:05.722Z,100649.47
2022-11-25T04:07:46.398Z,100653.00
2022-11-25T04:09:49.373Z,100645.19
2022-11-25T04:12:53.385Z,100656.50
2022-11-25T04:15:10.845Z,100657.13
2022-11-25T04:17:54.045Z,100656.28
2022-11-25T04:20:15.845Z,100657.06
2022-11-25T04:25:23.928Z,100656.28
2022-11-25T04:27:31.998Z,100659.78
2022-11-25T04:30:02.738Z,100656.50
2022-11-25T04:32:36.909Z,100664.84
2022-11-25T04:35:30.401Z,100662.19
2022-11-25T04:38:24.785Z,100666.59
2022-11-25T04:41:13.856Z,100681.75
2022-11-25T04:46:41.134Z,100678.25
2022-11-25T04:49:12.943Z,100676.72
2022-11-25T04:51:15.965Z,100673.28
2022-11-25T04:53:28.057Z,100680.84
2022-11-25T04:55:42.582Z,100678.25
2022-11-25T04:58:41.865Z,100687.22
2022-11-25T05:00:43.734Z,100681.50
2022-11-25T05:06:08.891Z,100690.19
2022-11-25T05:08:30.792Z,100697.84
2022-11-25T05:10:57.797Z,100698.84
2022-11-25T05:13:05.334Z,100694.59
2022-11-25T05:15:09.896Z,100704.56
2022-11-25T05:17:43.476Z,100704.56
2022-11-25T05:20:07.895Z,100700.38
2022-11-25T05:22:44.807Z,100700.38
2022-11-25T05:28:08.677Z,100703.16
2022-11-25T05:30:36.106Z,100712.25
2022-11-25T05:32:42.042Z,100710.41
2022-11-25T05:35:08.923Z,100715.53
2022-11-25T05:41:05.814Z,100714.66
2022-11-25T05:43:07.824Z,100709.53
2022-11-25T05:45:19.025Z,100719.72
2022-11-25T05:47:55.267Z,100720.81
2022-11-25T05:50:20.924Z,100712.25
2022-11-25T05:52:40.018Z,100723.09
2022-11-25T05:58:06.403Z,100721.81
2022-11-25T06:00:36.148Z,100721.91
2022-11-25T06:03:18.588Z,100722.81
2022-11-25T06:08:51.410Z,100722.56
2022-11-25T06:11:19.035Z,100730.13
2022-11-25T06:16:42.704Z,100736.19
2022-11-25T06:19:11.285Z,100738.03
2022-11-25T06:21:29.522Z,100737.84
2022-11-25T06:23:39.925Z,100732.66
2022-11-25T06:26:43.753Z,100735.31
2022-11-25T06:29:15.447Z,100732.91
2022-11-25T06:31:22.807Z,100729.81
2022-11-25T06:33:57.841Z,100729.59
2022-11-25T06:35:59.955Z,100726.09
2022-11-25T06:38:26.688Z,100736.38
2022-11-25T06:41:00.500Z,100741.44
2022-11-25T06:46:25.560Z,100731.34
2022-11-25T06:48:40.514Z,100743.00
2022-11-25T06:51:32.910Z,100741.34
2022-11-25T06:53:43.761Z,100748.34
2022-11-25T06:56:26.388Z,100745.81
2022-11-25T06:58:36.524Z,100748.47
2022-11-25T07:04:03.519Z,100761.09
2022-11-25T07:09:26.636Z,100751.31
2022-11-25T07:11:53.597Z,100762.53
2022-11-25T07:17:16.724Z,100762.28
2022-11-25T07:22:40.176Z,100751.84
2022-11-25T07:28:04.141Z,100761.28
2022-11-25T07:31:09.829Z,100762.19
2022-11-25T07:33:23.234Z,100766.47
2022-11-25T07:36:01.720Z,100763.19
2022-11-25T07:45:00.577Z,100764.03
2022-11-25T07:47:09.900Z,100765.03
2022-11-25T07:49:26.694Z,100766.03
2022-11-25T07:51:37.385Z,100774.56
2022-11-25T07:57:01.090Z,100771.47
2022-11-25T07:59:57.901Z,100776.97
2022-11-25T08:05:21.793Z,100778.69
2022-11-25T08:07:56.810Z,100784.53
2022-11-25T08:13:40.163Z,100790.94
2022-11-25T08:19:18.907Z,100784.34
2022-11-25T08:21:30.455Z,100784.34
2022-11-25T08:26:55.183Z,100786.13
2022-11-25T08:29:32.227Z,100793.47
2022-11-25T08:32:14.984Z,100795.91
2022-11-25T08:34:42.385Z,100794.38
2022-11-25T08:39:59.927Z,100791.38
2022-11-25T08:42:18.179Z,100795.34
2022-11-25T08:47:41.913Z,100799.94
2022-11-25T08:50:29.369Z,100799.47
2022-11-25T08:53:16.461Z,100812.28
2022-11-25T08:55:37.480Z,100811.41
2022-11-25T08:58:16.024Z,100811.13
2022-11-25T09:00:21.079Z,100810.25
2022-11-25T09:02:25.467Z,100809.09
2022-11-25T09:04:32.210Z,100817.22
2022-11-25T09:06:36.095Z,100814.47
2022-11-25T09:09:03.529Z,100821.38
2022-11-25T09:11:31.280Z,100828.19
2022-11-25T09:13:59.679Z,100818.50
2022-11-25T09:16:06.276Z,100814.09
2022-11-25T09:18:22.079Z,100818.38
2022-11-25T09:20:32.489Z,100818.38
2022-11-25T09:25:58.025Z,100818.69
2022-11-25T09:28:07.584Z,100825.41
2022-11-25T09:33:25.085Z,100813.75
2022-11-25T09:38:48.812Z,100819.66
2022-11-25T09:44:36.813Z,100830.06
2022-11-25T09:47:29.098Z,100824.34
2022-11-25T09:49:54.803Z,100829.59
2022-11-25T09:55:39.736Z,100823.69
2022-11-25T09:58:09.525Z,100827.22
2022-11-25T10:00:41.358Z,100823.03
2022-11-25T10:03:01.683Z,100829.16
2022-11-25T10:05:29.079Z,100831.34
2022-11-25T10:07:56.843Z,100828.03
2022-11-25T10:13:29.294Z,100834.19
2022-11-25T10:16:33.385Z,100829.78
2022-11-25T10:19:03.145Z,100827.19
2022-11-25T10:21:09.774Z,100830.66
2022-11-25T10:23:50.136Z,100827.69
2022-11-25T10:29:13.920Z,100832.75
2022-11-25T10:32:15.848Z,100827.28
2022-11-25T10:37:43.494Z,100832.41
2022-11-25T10:39:51.331Z,100834.72
2022-11-25T10:42:05.050Z,100836.47
2022-11-25T10:47:49.504Z,100838.44
2022-11-25T10:53:27.273Z,100840.66
2022-11-25T10:56:10.856Z,100842.16
2022-11-25T10:58:37.615Z,100836.47
2022-11-25T11:01:18.542Z,100840.19
2022-11-25T11:13:33.414Z,100848.94
2022-11-25T11:16:00.975Z,100849.38
2022-11-25T11:21:32.084Z,100840.53
2022-11-25T11:24:29.020Z,100842.81
2022-11-25T11:26:43.446Z,100843.28
2022-11-25T11:29:09.677Z,100847.22
2022-11-25T11:31:44.829Z,100848.84
2022-11-25T11:34:41.848Z,100849.63
2022-11-25T11:40:25.592Z,100847.75
2022-11-25T11:43:11.093Z,100847.09
2022-11-25T11:48:53.729Z,100845.75
2022-11-25T11:54:26.086Z,100851.56
2022-11-25T11:57:18.596Z,100843.41
2022-11-25T11:59:55.198Z,100853.34
2022-11-25T12:05:22.422Z,100847.09
2022-11-25T12:11:06.334Z,100854.22
2022-11-25T12:13:45.772Z,100850.34
2022-11-25T12:16:30.268Z,100856.53
2022-11-25T12:19:10.360Z,100853.78
2022-11-25T12:22:20.811Z,100853.97
2022-11-25T12:25:10.372Z,100838.91
2022-11-25T12:30:45.682Z,100856.63
2022-11-25T12:33:24.565Z,100860.38
2022-11-25T12:39:25.646Z,100858.72
2022-11-25T12:45:33.191Z,100864.09
2022-11-25T12:48:11.174Z,100864.66
2022-11-25T12:50:36.254Z,100865.63
2022-11-25T12:56:02.912Z,100863.09
2022-11-25T13:02:10.271Z,100853.78
2022-11-25T13:11:19.925Z,100857.84
2022-11-25T13:13:39.849Z,100864.97
2022-11-25T13:15:48.764Z,100866.44
2022-11-25T13:18:34.733Z,100863.22
2022-11-25T13:20:44.384Z,100870.03
2022-11-25T13:23:26.798Z,100866.44
2022-11-25T13:26:14.758Z,100868.94
2022-11-25T13:32:00.641Z,100876.81
2022-11-25T13:34:35.167Z,100881.88
2022-11-25T13:37:37.747Z,100878.38
2022-11-25T13:46:07.698Z,100878.81
2022-11-25T13:48:51.942Z,100886.50
2022-11-25T13:51:49.685Z,100887.25
2022-11-25T13:54:17.900Z,100888.16
2022-11-25T13:56:43.437Z,100894.84
2022-11-25T13:59:32.815Z,100889.03
2022-11-25T14:01:55.063Z,100888.38
2022-11-25T14:07:35.466Z,100892.75
2022-11-25T14:13:30.883Z,100896.72
2022-11-25T14:15:47.303Z,100900.41
2022-11-25T14:19:11.958Z,100900.63
2022-11-25T14:21:06.070Z,100888.63
2022-11-25T14:23:48.670Z,100896.53
2022-11-25T14:26:47.815Z,100900.06
2022-11-25T14:29:38.656Z,100903.78
2022-11-25T14:31:54.580Z,100902.44
2022-11-25T14:34:27.547Z,100908.59
2022-11-25T14:36:41.839Z,100912.63
2022-11-25T14:39:06.284Z,100901.81
2022-11-25T14:41:23.548Z,100913.44
2022-11-25T14:43:39.747Z,100909.56
2022-11-25T14:45:41.818Z,100913.84
2022-11-25T14:47:43.742Z,100919.84
2022-11-25T14:50:00.135Z,100917.06
2022-11-25T14:52:27.216Z,100912.97
2022-11-25T14:54:29.312Z,100908.31
2022-11-25T14:56:39.435Z,100916.22
2022-11-25T14:58:53.409Z,100920.03
2022-11-25T15:01:04.676Z,100922.22
2022-11-25T15:03:18.295Z,100919.91
2022-11-25T15:05:36.432Z,100922.22
2022-11-25T15:07:42.655Z,100924.97
2022-11-25T15:09:45.593Z,100925.72
2022-11-25T15:11:50.946Z,100926.03
2022-11-25T15:14:06.506Z,100931.78
2022-11-25T15:16:16.395Z,100932.75
2022-11-25T15:18:22.106Z,100937.16
2022-11-25T15:20:28.056Z,100936.16
2022-11-25T15:22:30.034Z,100938.50
2022-11-25T15:24:48.880Z,100944.81
2022-11-25T15:26:56.752Z,100938.00
2022-11-25T15:29:01.401Z,100938.00
2022-11-25T15:31:10.585Z,100943.72
2022-11-25T15:33:12.561Z,100951.41
2022-11-25T15:35:26.376Z,100944.50
2022-11-25T15:37:28.740Z,100946.59
2022-11-25T15:39:31.702Z,100940.59
2022-11-25T15:41:35.899Z,100942.53
2022-11-25T15:43:42.196Z,100945.28
2022-11-25T15:45:46.749Z,100949.75
2022-11-25T15:47:48.974Z,100947.91
2022-11-25T15:50:00.958Z,100946.25
2022-11-25T15:52:17.107Z,100935.16
2022-11-25T15:54:27.141Z,100946.03
2022-11-25T15:56:32.952Z,100941.66
2022-11-25T15:58:35.256Z,100947.16
2022-11-25T16:00:38.713Z,100936.91
2022-11-25T16:02:43.528Z,100939.13
2022-11-25T16:04:45.500Z,100949.25
2022-11-25T16:06:59.646Z,100945.06
2022-11-25T16:09:17.985Z,100949.25
2022-11-25T16:11:21.542Z,100942.53
2022-11-25T16:13:23.556Z,100945.06
2022-11-25T16:15:51.057Z,100945.97
2022-11-25T16:18:02.789Z,100941.66
2022-11-25T16:20:20.300Z,100941.53
2022-11-25T16:22:23.389Z,100944.06
2022-11-25T16:24:47.978Z,100949.25
2022-11-25T16:27:17.132Z,100957.53
2022-11-25T16:29:47.559Z,100957.53
2022-11-25T16:31:50.454Z,100955.09
2022-11-25T16:34:19.922Z,100958.50
2022-11-25T16:36:22.066Z,100962.59
2022-11-25T16:38:29.784Z,100964.25
2022-11-25T16:43:57.108Z,100958.50
2022-11-25T16:46:45.393Z,100955.84
2022-11-25T16:49:35.077Z,100955.78
2022-11-25T16:52:16.369Z,100960.25
2022-11-25T16:54:25.760Z,100954.50
2022-11-25T16:56:44.664Z,100957.72
2022-11-25T16:58:58.481Z,100966.09
2022-11-25T17:01:54.349Z,100964.44
2022-11-25T17:03:59.366Z,100962.03
2022-11-25T17:06:34.867Z,100962.09
2022-11-25T17:08:45.452Z,100962.69
2022-11-25T17:11:00.028Z,100964.44
2022-11-25T17:13:43.816Z,100966.88
2022-11-25T17:15:51.373Z,100959.94
2022-11-25T17:18:13.971Z,100961.81
2022-11-25T17:20:53.654Z,100964.25
2022-11-25T17:23:17.954Z,100965.69
2022-11-25T17:26:00.447Z,100969.41
2022-11-25T17:29:00.709Z,100970.00
2022-11-25T17:31:26.407Z,100969.09
2022-11-25T17:40:52.685Z,100969.31
2022-11-25T17:43:23.698Z,100966.78
2022-11-25T17:45:33.458Z,100966.00
2022-11-25T17:47:43.495Z,100971.72
2022-11-25T17:49:53.527Z,100973.28
2022-11-25T17:52:47.445Z,100978.88
2022-11-25T17:55:11.757Z,100982.97
2022-11-25T17:58:10.595Z,100978.34
2022-11-25T18:00:22.390Z,100978.56
2022-11-25T18:02:32.216Z,100987.25
2022-11-25T18:04:35.817Z,100978.09
2022-11-25T18:09:53.536Z,100980.81
2022-11-25T18:12:41.088Z,100982.69
2022-11-25T18:14:44.343Z,100979.28
2022-11-25T18:16:48.286Z,100980.81
2022-11-25T18:18:51.613Z,100976.56
2022-11-25T18:21:50.089Z,100986.69
2022-11-25T18:24:08.646Z,100987.56
2022-11-25T18:26:55.522Z,100989.72
2022-11-25T18:29:04.983Z,100997.00
2022-11-25T18:31:46.307Z,100991.19
2022-11-25T18:33:54.308Z,100991.75
2022-11-25T18:36:07.222Z,100997.88
2022-11-25T18:38:31.081Z,100995.66
2022-11-25T18:40:40.893Z,101005.59
2022-11-25T18:42:49.826Z,101002.28
2022-11-25T18:44:56.899Z,100999.41
2022-11-25T18:47:12.754Z,101000.84
2022-11-25T18:49:17.131Z,101002.19
2022-11-25T18:51:32.062Z,100998.97
2022-11-25T18:53:51.616Z,101000.72
2022-11-25T18:56:17.763Z,101007.56
2022-11-25T18:58:36.832Z,101000.97
2022-11-25T19:01:11.970Z,100993.34
2022-11-25T19:03:27.746Z,101000.06
2022-11-25T19:05:34.420Z,101007.44
2022-11-25T19:07:39.828Z,101000.97
2022-11-25T19:09:58.660Z,101007.56
2022-11-25T19:12:06.769Z,101011.66
2022-11-25T19:14:16.398Z,101012.41
2022-11-25T19:19:39.939Z,101009.31
2022-11-25T19:21:44.658Z,101018.47
2022-11-25T19:24:16.645Z,101018.47
2022-11-25T19:26:46.350Z,101017.47
2022-11-25T19:29:03.419Z,101018.94
2022-11-25T19:31:09.515Z,101022.44
2022-11-25T19:33:32.819Z,101023.31
2022-11-25T19:36:04.303Z,101030.72
2022-11-25T19:38:17.357Z,101037.53
2022-11-25T19:43:41.734Z,101041.25
2022-11-25T19:46:52.740Z,101033.88
2022-11-25T19:52:22.260Z,101037.97
2022-11-25T19:54:55.701Z,101038.16
2022-11-25T19:57:29.011Z,101052.38
2022-11-25T20:00:12.893Z,101051.63
2022-11-25T20:02:34.079Z,101049.84
2022-11-25T20:04:58.280Z,101049.84
2022-11-25T20:07:13.404Z,101054.91
2022-11-25T20:09:44.206Z,101057.75
2022-11-25T20:12:10.628Z,101062.16
2022-11-25T20:14:15.687Z,101064.69
2022-11-25T20:16:52.261Z,101063.13
2022-11-25T20:19:04.394Z,101069.88
2022-11-25T20:21:47.062Z,101072.28
2022-11-25T20:23:58.727Z,101073.47
2022-11-25T20:26:25.142Z,101071.84
2022-11-25T20:28:40.775Z,101082.19
2022-11-25T20:31:14.809Z,101081.31
2022-11-25T20:33:49.273Z,101081.06
2022-11-25T20:36:11.198Z,101081.31
2022-11-25T20:38:20.219Z,101077.78
2022-11-25T20:43:53.904Z,101079.97
2022-11-25T20:46:07.028Z,101083.06
2022-11-25T20:48:19.985Z,101081.50
2022-11-25T20:50:35.658Z,101082.38
2022-11-25T20:52:59.867Z,101086.56
2022-11-25T20:58:31.710Z,101081.69
2022-11-25T21:00:59.106Z,101087.72
2022-11-25T21:03:27.021Z,101090.59
2022-11-25T21:05:30.327Z,101095.22
2022-11-25T21:07:33.399Z,101095.03
2022-11-25T21:09:36.700Z,101090.84
2022-11-25T21:11:40.843Z,101094.25
2022-11-25T21:13:43.345Z,101091.72
2022-11-25T21:15:49.663Z,101087.31
2022-11-25T21:17:52.354Z,101090.41
2022-11-25T21:19:55.751Z,101094.38
2022-11-25T21:22:05.500Z,101093.91
2022-11-25T21:24:12.932Z,101099.84
2022-11-25T21:26:27.715Z,101094.59
2022-11-25T21:28:36.512Z,101091.19
2022-11-25T21:30:40.437Z,101087.97
2022-11-25T21:32:42.344Z,101087.97
2022-11-25T21:34:44.471Z,101094.03
2022-11-25T21:36:48.698Z,101094.13
2022-11-25T21:38:55.838Z,101094.78
2022-11-25T21:40:59.190Z,101098.13
2022-11-25T21:43:01.601Z,101096.34
2022-11-25T21:45:03.866Z,101095.78
2022-11-25T21:47:18.374Z,101099.66
2022-11-25T21:49:20.304Z,101103.38
2022-11-25T21:51:24.484Z,101099.97
2022-11-25T21:53:36.994Z,101101.63
2022-11-25T21:55:40.385Z,101103.38
2022-11-25T21:57:42.975Z,101099.31
2022-11-25T21:59:47.082Z,101105.91
2022-11-25T22:01:49.141Z,101113.63
2022-11-25T22:03:51.351Z,101108.66
2022-11-25T22:05:53.209Z,101105.25
2022-11-25T22:07:55.369Z,101113.50
2022-11-25T22:09:58.285Z,101105.38
2022-11-25T22:12:00.272Z,101112.19
2022-11-25T22:14:06.790Z,101116.50
2022-11-25T22:16:15.743Z,101119.69
2022-11-25T22:18:22.064Z,101117.59
2022-11-25T22:20:33.603Z,101112.44
2022-11-25T22:22:35.565Z,101117.72
2022-11-25T22:24:37.867Z,101127.50
2022-11-25T22:26:41.002Z,101129.19
2022-11-25T22:28:43.893Z,101132.03
2022-11-25T22:30:56.449Z,101138.44
2022-11-25T22:33:02.551Z,101142.91
2022-11-25T22:35:17.746Z,101132.13
2022-11-25T22:37:22.337Z,101141.84
2022-11-25T22:39:26.530Z,101147.78
2022-11-25T22:41:29.514Z,101150.50
2022-11-25T22:43:37.784Z,101148.56
2022-11-25T22:45:39.740Z,101150.50
2022-11-25T22:47:45.197Z,101145.38
2022-11-25T22:49:48.843Z,101148.78
2022-11-25T22:51:50.822Z,101152.06
2022-11-25T22:53:54.710Z,101157.13
2022-11-25T22:56:10.379Z,101158.69
2022-11-25T22:58:14.579Z,101158.44
2022-11-25T23:00:24.391Z,101156.72
2022-11-25T23:02:34.351Z,101154.84
2022-11-25T23:04:37.515Z,101157.38
2022-11-25T23:06:40.583Z,101156.38
2022-11-25T23:08:43.474Z,101151.19
2022-11-25T23:10:47.539Z,101157.03
2022-11-25T23:12:53.626Z,101158.03
2022-11-25T23:14:55.416Z,101154.50
2022-11-25T23:16:58.412Z,101152.97
2022-11-25T23:19:00.336Z,101163.97
2022-11-25T23:21:03.412Z,101164.84
2022-11-25T23:23:11.344Z,101160.97
2022-11-25T23:25:21.366Z,101161.31
2022-11-25T23:27:35.247Z,101163.97
2022-11-25T23:29:38.464Z,101158.13
2022-11-25T23:31:42.888Z,101163.09
2022-11-25T23:33:51.163Z,101162.19
2022-11-25T23:35:53.518Z,101164.72
2022-11-25T23:37:58.910Z,101164.84
2022-11-25T23:40:00.897Z,101164.84
2022-11-25T23:42:04.067Z,101165.72
2022-11-25T23:44:32.192Z,101170.78
2022-11-25T23:46:36.772Z,101164.84
2022-11-25T23:48:42.522Z,101169.25
2022-11-25T23:51:00.519Z,101166.59
2022-11-25T23:53:07.773Z,101160.66
2022-11-25T23:55:16.529Z,101170.78
2022-11-25T23:57:22.077Z,101167.50
2022-11-25T23:59:31.324Z,101165.72
